• Join FlightAware (Why Join?)
  • Login
  • US Flag 
07:52AM EDT


 

Airport Tracker/Info


-or-


 

Live Flight TrackerFlight Track Log ✈ EGF3796 ✈ 24-Apr-2013 ✈ KORD - KXNA

Flight Track Log - Related Links

Times and Time Zones

All times are in EDT time to prevent confusion due to time zone crossing. See the EGF3796 flight status page for this flight to view local times or setup timezone preferences in your user account.

Time Position Orientation Groundspeed Altitude Reporting Facility
EDT Latitude Longitude Course Direction KTS MPH feet Rate Location/Type
06:30PM 41.9167 -87.9333 201° Southwest 190 219 3,700  Level Chicago TRACON
06:31PM 41.8500 -87.9667 200° South 267 307 5,000 1,320 Climbing Chicago TRACON
06:32PM 41.7170 -88.0183 203° Southwest  Level FlightAware Approximate
06:32PM 41.8181 -87.9606 172° South 251 289 6,000  Level Chicago Center
06:33PM 41.6319 -88.0657 203° Southwest  Level FlightAware Approximate
06:33PM 41.7286 -87.9811 190° South 277 319 10,100  Level Chicago Center
06:34PM 41.5448 -88.1055 197° South  Level FlightAware Approximate
06:34PM 41.6586 -88.0242 205° Southwest 278 320 13,200  Level Chicago Center
06:35PM 41.4565 -88.1408 197° South  Level FlightAware Approximate
06:35PM 41.5836 -88.0708 205° Southwest 296 341 15,100  Level Chicago Center
06:36PM 41.3632 -88.1767 201° Southwest  Level FlightAware Approximate
06:36PM 41.4958 -88.1264 205° Southwest 355 409 16,300  Level Chicago Center
06:37PM 41.3783 -88.1922 203° Southwest 399 459 18,000 1,740 Climbing Chicago Center
06:38PM 41.2717 -88.2406 199° South 412 474 20,000 1,920 Climbing Chicago Center
06:39PM 41.1647 -88.2889 199° South 410 472 22,000 1,740 Climbing Chicago Center
06:40PM 41.0564 -88.3381 199° South 413 475 23,700 1,740 Climbing Chicago Center
06:41PM 40.9261 -88.3953 198° South 413 475 25,700 1,740 Climbing Chicago Center
06:43PM 40.8178 -88.4431 198° South 413 475 27,400 1,620 Climbing Chicago Center
06:44PM 40.7111 -88.4917 199° South 409 471 29,100 1,500 Climbing Chicago Center
06:45PM 40.6169 -88.5572 208° Southwest 391 450 30,600 1,200 Climbing Chicago Center
06:46PM 40.5383 -88.6458 221° Southwest 375 432 31,600 960 Climbing Chicago Center
06:47PM 40.4550 -88.7408 221° Southwest 384 442 32,600 1,020 Climbing Chicago Center
06:48PM 40.3564 -88.8500 220° Southwest 385 443 33,800 660 Climbing Chicago Center
06:49PM 40.2750 -88.9422 221° Southwest 385 443 34,000 60 Climbing Chicago Center
06:50PM 40.1931 -89.0325 220° Southwest 384 442 34,000  Level Chicago Center
06:51PM 40.1100 -89.1247 220° Southwest 387 445 34,000  Level Chicago Center
06:52PM 40.0447 -89.1978 221° Southwest 383 441 34,000  Level Kansas City Center
06:53PM 39.9636 -89.2864 220° Southwest 381 438 34,000  Level Kansas City Center
06:54PM 39.8775 -89.4056 227° Southwest 376 433 34,000  Level Kansas City Center
06:55PM 39.8064 -89.5044 227° Southwest 374 430 34,000  Level Kansas City Center
06:56PM 39.7350 -89.6031 227° Southwest 374 430 34,000  Level Kansas City Center
06:57PM 39.6606 -89.7064 227° Southwest 371 427 34,000  Level Kansas City Center
06:58PM 39.5900 -89.8039 227° Southwest 371 427 34,000  Level Kansas City Center
06:59PM 39.5200 -89.8989 226° Southwest 367 422 34,000  Level Kansas City Center
07:00PM 39.4511 -89.9944 227° Southwest 366 421 34,000  Level Kansas City Center
07:01PM 39.3819 -90.0894 227° Southwest 365 420 34,000  Level Kansas City Center
07:02PM 39.2989 -90.2025 227° Southwest 363 418 34,000  Level Kansas City Center
07:03PM 39.2317 -90.2958 227° Southwest 360 414 34,000  Level Kansas City Center
07:04PM 39.1628 -90.3878 226° Southwest 359 413 34,000  Level Kansas City Center
07:05PM 39.0967 -90.4783 227° Southwest 354 407 34,000  Level Kansas City Center
07:06PM 39.0297 -90.5683 226° Southwest 352 405 34,000  Level Kansas City Center
07:07PM 38.9500 -90.6750 226° Southwest 349 402 34,000  Level Kansas City Center
07:08PM 38.8844 -90.7633 226° Southwest 344 396 34,000  Level Kansas City Center
07:09PM 38.8183 -90.8503 226° Southwest 346 398 34,000  Level Kansas City Center
07:10PM 38.7528 -90.9367 226° Southwest 344 396 34,000  Level Kansas City Center
07:11PM 38.6886 -91.0225 226° Southwest 340 391 34,000  Level Kansas City Center
07:12PM 38.6100 -91.1283 226° Southwest 346 398 34,000  Level Kansas City Center
07:13PM 38.5428 -91.2150 225° Southwest 346 398 34,000  Level Kansas City Center
07:14PM 38.4756 -91.3019 225° Southwest 346 398 34,000  Level Kansas City Center
07:15PM 38.4044 -91.3953 226° Southwest 347 399 34,000 -60 Level Kansas City Center
07:17PM 38.3361 -91.4842 226° Southwest 349 402 33,900 -540 Descending Kansas City Center
07:18PM 38.2678 -91.5744 226° Southwest 352 405 32,900 -1,020 Descending Kansas City Center
07:19PM 38.1978 -91.6656 226° Southwest 358 412 31,900 -1,020 Descending Kansas City Center
07:20PM 38.1297 -91.7528 225° Southwest 349 402 30,900 -1,080 Descending Kansas City Center
07:21PM 38.0492 -91.8583 226° Southwest 344 396 29,700 -1,080 Descending Kansas City Center
07:22PM 37.9778 -91.9472 224° Southwest 352 405 28,700 -1,020 Descending Kansas City Center
07:23PM 37.9072 -92.0392 226° Southwest 359 413 27,700 -960 Descending Kansas City Center
07:24PM 37.8436 -92.1189 225° Southwest 365 420 26,800 -1,080 Descending Kansas City Center
07:25PM 37.7553 -92.2325 225° Southwest 375 432 25,600 -1,080 Descending Kansas City Center
07:26PM 37.6806 -92.3275 225° Southwest 381 438 24,600 -960 Descending Kansas City Center
07:27PM 37.6081 -92.4200 225° Southwest 376 433 23,700 -960 Descending Kansas City Center
07:28PM 37.5342 -92.5136 225° Southwest 374 430 22,700 -900 Descending Kansas City Center
07:29PM 37.4625 -92.6047 225° Southwest 370 426 21,900 -900 Descending Kansas City Center
07:30PM 37.3906 -92.6947 225° Southwest 366 421 20,900 -1,020 Descending Kansas City Center
07:31PM 37.3069 -92.7989 225° Southwest 354 407 19,900 -960 Descending Kansas City Center
07:32PM 37.2361 -92.8858 224° Southwest 353 406 19,000 -960 Descending Kansas City Center
07:33PM 37.1639 -92.9750 225° Southwest 359 413 18,000 -780 Descending Kansas City Center
07:34PM 37.0942 -93.0625 225° Southwest 356 410 17,400 -720 Descending Kansas City Center
07:35PM 37.0231 -93.1503 225° Southwest 356 410 16,500 -900 Descending Kansas City Center
07:36PM 36.9522 -93.2383 225° Southwest 358 412 15,600 -900 Descending Kansas City Center
07:37PM 36.8828 -93.3261 225° Southwest 356 410 14,700 -900 Descending Kansas City Center
07:38PM 36.8114 -93.4133 224° Southwest 357 411 13,800 -1,380 Descending Kansas City Center
07:39PM 36.7269 -93.5203 225° Southwest 361 415 12,000 -1,560 Descending Kansas City Center
07:40PM 36.6561 -93.6103 226° Southwest 363 418 10,700 -960 Descending Kansas City Center
07:41PM 36.5925 -93.6953 227° Southwest 348 400 10,100 -780 Descending Kansas City Center
07:42PM 36.5453 -93.7614 228° Southwest 277 319 9,100 -960 Descending Kansas City Center
07:43PM 36.4931 -93.8411 231° Southwest 268 308 8,100 -1,020 Descending Kansas City Center
07:44PM 36.4722 -93.9292 254° West 268 308 7,000 -1,080 Descending Kansas City Center
07:45PM 36.4519 -94.0158 254° West 263 303 6,000 -540 Descending Kansas City Center
07:46PM 36.4306 -94.1031 253° West 262 302 6,000  Level Kansas City Center